createdAt,value
2022-11-18T16:00:25.631Z,61.63
2022-11-18T16:02:59.645Z,61.98
2022-11-18T16:05:33.082Z,62.25
2022-11-18T16:08:06.532Z,62.08
2022-11-18T16:10:57.287Z,61.88
2022-11-18T16:13:31.380Z,62.08
2022-11-18T16:16:05.324Z,62.19
2022-11-18T16:18:40.802Z,62.12
2022-11-18T16:21:14.981Z,61.92
2022-11-18T16:23:49.092Z,61.94
2022-11-18T16:26:22.250Z,62.29
2022-11-18T16:28:56.362Z,62.30
2022-11-18T16:31:41.992Z,62.27
2022-11-18T16:34:17.185Z,62.24
2022-11-18T16:36:52.450Z,62.12
2022-11-18T16:39:27.841Z,62.42
2022-11-18T16:42:08.330Z,62.84
2022-11-18T16:44:42.583Z,62.88
2022-11-18T16:47:16.170Z,62.88
2022-11-18T16:49:49.870Z,63.11
2022-11-18T16:52:24.846Z,63.32
2022-11-18T16:54:58.433Z,63.33
2022-11-18T16:57:32.648Z,63.24
2022-11-18T17:00:08.315Z,63.27
2022-11-18T17:02:42.515Z,63.31
2022-11-18T17:05:16.440Z,63.12
2022-11-18T17:07:50.351Z,63.01
2022-11-18T17:10:24.977Z,63.08
2022-11-18T17:12:58.582Z,63.06
2022-11-18T17:15:33.257Z,63.02
2022-11-18T17:18:25.299Z,63.05
2022-11-18T17:20:58.797Z,63.08
2022-11-18T17:23:33.115Z,63.01
2022-11-18T17:26:08.627Z,62.98
2022-11-18T17:28:43.896Z,62.79
2022-11-18T17:31:19.482Z,62.81
2022-11-18T17:33:56.491Z,62.79
2022-11-18T17:36:31.245Z,62.62
2022-11-18T17:39:04.879Z,62.44
2022-11-18T17:41:56.490Z,62.42
2022-11-18T17:44:30.965Z,62.14
2022-11-18T17:47:05.438Z,62.17
2022-11-18T17:49:39.359Z,62.25
2022-11-18T17:52:13.479Z,62.25
2022-11-18T17:54:46.696Z,62.16
2022-11-18T17:57:20.494Z,61.99
2022-11-18T17:59:54.178Z,61.92
2022-11-18T18:02:28.657Z,61.72
2022-11-18T18:05:02.789Z,61.72
2022-11-18T18:07:36.914Z,61.78
2022-11-18T18:10:12.864Z,61.73
2022-11-18T18:13:13.712Z,61.68
2022-11-18T18:16:00.252Z,61.87
2022-11-18T18:18:34.647Z,61.92
2022-11-18T18:21:12.865Z,61.81
2022-11-18T18:23:47.434Z,61.79
2022-11-18T18:26:26.599Z,61.70
2022-11-18T18:29:05.659Z,61.50
2022-11-18T18:31:40.247Z,61.60
2022-11-18T18:34:13.875Z,61.83
2022-11-18T18:36:48.137Z,61.77
2022-11-18T18:39:22.571Z,61.35
2022-11-18T18:41:56.422Z,61.45
2022-11-18T18:44:51.091Z,61.47
2022-11-18T18:47:25.933Z,61.22
2022-11-18T18:49:59.495Z,61.23
2022-11-18T18:52:34.594Z,61.20
2022-11-18T18:55:09.978Z,61.14
2022-11-18T18:57:44.691Z,60.97
2022-11-18T19:00:21.272Z,60.85
2022-11-18T19:02:55.968Z,60.76
2022-11-18T19:06:00.805Z,60.66
2022-11-18T19:08:28.132Z,60.75
2022-11-18T19:11:07.222Z,60.84
2022-11-18T19:13:39.605Z,60.71
2022-11-18T19:16:14.057Z,60.88
2022-11-18T19:18:50.826Z,60.80
2022-11-18T19:21:25.818Z,60.81
2022-11-18T19:24:00.772Z,60.72
2022-11-18T19:26:36.044Z,60.76
2022-11-18T19:29:10.646Z,60.70
2022-11-18T19:31:44.983Z,60.65
2022-11-18T19:34:20.549Z,60.22
2022-11-18T19:36:54.727Z,59.95
2022-11-18T19:39:28.620Z,60.04
2022-11-18T19:42:02.919Z,59.92
2022-11-18T19:44:36.577Z,59.79
2022-11-18T19:47:10.523Z,59.77
2022-11-18T19:49:44.516Z,59.74
2022-11-18T19:52:19.389Z,59.70
2022-11-18T19:54:52.743Z,59.71
2022-11-18T19:57:26.948Z,59.56
2022-11-18T20:00:01.189Z,59.48
2022-11-18T20:02:35.909Z,59.69
2022-11-18T20:05:32.422Z,59.97
2022-11-18T20:08:08.586Z,59.94
2022-11-18T20:10:42.985Z,59.89
2022-11-18T20:13:18.496Z,59.77
2022-11-18T20:15:53.425Z,59.63
2022-11-18T20:18:27.869Z,59.80
2022-11-18T20:21:07.576Z,59.82
2022-11-18T20:23:41.985Z,59.65
2022-11-18T20:26:17.632Z,59.75
2022-11-18T20:28:57.224Z,59.52
2022-11-18T20:31:34.697Z,59.40
2022-11-18T20:34:09.319Z,59.51
2022-11-18T20:36:46.009Z,59.52
2022-11-18T20:39:21.353Z,59.62
2022-11-18T20:42:13.437Z,59.73
2022-11-18T20:44:48.665Z,59.79
2022-11-18T20:47:21.387Z,59.76
2022-11-18T20:49:57.863Z,59.78
2022-11-18T20:52:32.199Z,59.67
2022-11-18T20:55:06.904Z,59.34
2022-11-18T20:57:40.619Z,59.31
2022-11-18T21:00:16.554Z,59.07
2022-11-18T21:02:50.255Z,59.09
2022-11-18T21:05:24.281Z,58.96
2022-11-18T21:07:58.025Z,58.84
2022-11-18T21:10:32.281Z,58.71
2022-11-18T21:13:24.795Z,58.89
2022-11-18T21:15:59.323Z,58.79
2022-11-18T21:18:33.871Z,58.88
2022-11-18T21:21:25.857Z,58.83
2022-11-18T21:24:01.141Z,58.69
2022-11-18T21:26:36.634Z,58.47
2022-11-18T21:29:11.935Z,58.45
2022-11-18T21:31:46.178Z,58.39
2022-11-18T21:34:20.351Z,58.41
2022-11-18T21:36:55.417Z,58.48
2022-11-18T21:39:30.063Z,58.52
2022-11-18T21:42:04.090Z,58.57
2022-11-18T21:44:37.948Z,58.73
2022-11-18T21:47:12.152Z,58.72
2022-11-18T21:49:45.698Z,58.72
2022-11-18T21:52:19.419Z,58.72
2022-11-18T21:54:52.837Z,58.84
2022-11-18T21:57:26.316Z,58.90
2022-11-18T21:59:59.736Z,58.78
2022-11-18T22:02:33.467Z,58.77
2022-11-18T22:05:08.644Z,58.89
2022-11-18T22:07:42.153Z,59.22
2022-11-18T22:10:17.148Z,59.24
2022-11-18T22:12:51.888Z,59.24
2022-11-18T22:15:25.491Z,59.20
2022-11-18T22:17:58.637Z,59.10
2022-11-18T22:20:32.413Z,59.12
2022-11-18T22:23:06.379Z,58.90
2022-11-18T22:25:40.345Z,58.85
2022-11-18T22:28:13.823Z,59.21
2022-11-18T22:30:48.257Z,59.34
2022-11-18T22:33:21.709Z,59.49
2022-11-18T22:35:55.059Z,59.46
2022-11-18T22:38:28.937Z,59.42
2022-11-18T22:41:07.009Z,59.42
2022-11-18T22:43:40.781Z,59.54
2022-11-18T22:46:15.463Z,59.47
2022-11-18T22:48:49.055Z,59.48
2022-11-18T22:51:22.515Z,59.35
2022-11-18T22:54:15.936Z,59.17
2022-11-18T22:56:49.956Z,59.23
2022-11-18T22:59:23.513Z,59.37
2022-11-18T23:01:57.069Z,59.52
2022-11-18T23:04:30.642Z,59.49
2022-11-18T23:07:04.425Z,59.46
2022-11-18T23:09:37.956Z,59.69
2022-11-18T23:12:29.076Z,59.75
2022-11-18T23:15:02.957Z,59.69
2022-11-18T23:17:36.408Z,59.65
2022-11-18T23:20:12.449Z,59.58
2022-11-18T23:22:46.198Z,59.65
2022-11-18T23:25:20.080Z,59.58
2022-11-18T23:27:54.467Z,59.34
2022-11-18T23:30:28.379Z,59.18
2022-11-18T23:33:01.943Z,58.99
2022-11-18T23:35:35.747Z,58.96
2022-11-18T23:38:09.160Z,59.08
2022-11-18T23:40:42.442Z,59.00
2022-11-18T23:43:15.860Z,59.07
2022-11-18T23:45:49.489Z,59.20
2022-11-18T23:48:23.777Z,59.20
2022-11-18T23:51:01.893Z,59.13
2022-11-18T23:53:37.013Z,59.07
2022-11-18T23:56:12.978Z,58.98
2022-11-18T23:58:48.223Z,59.13
